Main page
METAR-TAF:

METAR-TAF

Airports :

Treviso Airport

Treviso, Italy

latitude: 45-39N, longitude: 012-11E, elevation: 18 m

Current weather observation

The report was made 19 minutes ago, at 20:50 UTC
Wind 2 kt from the North/Northeast
Temperature 7°C
Humidity 93%
Pressure 1017 hPa
Visibility 10 km or more
no clouds below 1500 m and no cumulonimbus

METAR: LIPH 212050Z 02002KT CAVOK 07/06 Q1017

Time: 22:09 (21:09 UTC)

Forecast

The report was made 4 hours and 9 minutes ago, at 17:00 UTC
Forecast valid from 21 at 18 UTC to 22 at 18 UTC
Wind 4 kt from variable directions
Visibility 10 km or more
Scattered clouds at a height of 6000 ft
Temporary
from 21 at 22 UTC to 22 at 07 UTC
Visibility: 2000 m
mist

TAF: LIPH 211700Z 2118/2218 VRB04KT 9999 SCT060 TEMPO 2122/2207 2000 BR

Weather observations and forecasts of more than 4000 airports (METAR and TAF reports).

The available stations are represented by yellow and red dots on the map.

Hover mouse over dot to see the name of the station.

Then click to see weather observations and forecasts.

To change the map : click on the green buttons with a black cross to zoom in, on the green button with a dash to zoom out, or on the green arrows for adjacent maps.


METAR-TAF: